sensor_id;sensor_type;location;lat;lon;timestamp;P1;durP1;ratioP1;P2;durP2;ratioP2
44774;SDS011;31340;51.402;0.016;2023-01-31T00:01:39;21.13;;;5.55;;
44774;SDS011;31340;51.402;0.016;2023-01-31T00:04:08;23.02;;;5.85;;
44774;SDS011;31340;51.402;0.016;2023-01-31T00:09:07;19.00;;;4.90;;
44774;SDS011;31340;51.402;0.016;2023-01-31T00:11:36;20.85;;;4.85;;
44774;SDS011;31340;51.402;0.016;2023-01-31T00:14:05;20.00;;;4.80;;
44774;SDS011;31340;51.402;0.016;2023-01-31T00:16:33;21.05;;;4.70;;
44774;SDS011;31340;51.402;0.016;2023-01-31T00:19:02;20.10;;;4.97;;
44774;SDS011;31340;51.402;0.016;2023-01-31T00:21:30;16.95;;;3.90;;
44774;SDS011;31340;51.402;0.016;2023-01-31T00:23:58;14.50;;;3.78;;
44774;SDS011;31340;51.402;0.016;2023-01-31T00:26:27;18.48;;;4.68;;
44774;SDS011;31340;51.402;0.016;2023-01-31T00:28:57;22.17;;;5.30;;
44774;SDS011;31340;51.402;0.016;2023-01-31T00:31:26;20.48;;;4.63;;
44774;SDS011;31340;51.402;0.016;2023-01-31T00:33:56;21.17;;;3.67;;
44774;SDS011;31340;51.402;0.016;2023-01-31T00:36:25;12.80;;;4.00;;
44774;SDS011;31340;51.402;0.016;2023-01-31T00:38:55;22.85;;;4.35;;
44774;SDS011;31340;51.402;0.016;2023-01-31T00:41:25;21.25;;;4.65;;
44774;SDS011;31340;51.402;0.016;2023-01-31T00:43:53;15.52;;;3.83;;
44774;SDS011;31340;51.402;0.016;2023-01-31T00:46:21;18.33;;;3.88;;
44774;SDS011;31340;51.402;0.016;2023-01-31T00:48:50;23.05;;;5.22;;
44774;SDS011;31340;51.402;0.016;2023-01-31T00:51:19;19.55;;;4.00;;
44774;SDS011;31340;51.402;0.016;2023-01-31T00:53:47;19.52;;;4.07;;
44774;SDS011;31340;51.402;0.016;2023-01-31T00:56:18;19.58;;;4.32;;
44774;SDS011;31340;51.402;0.016;2023-01-31T00:58:49;15.30;;;3.70;;
44774;SDS011;31340;51.402;0.016;2023-01-31T01:01:19;17.33;;;4.32;;
44774;SDS011;31340;51.402;0.016;2023-01-31T01:03:52;14.75;;;3.63;;
44774;SDS011;31340;51.402;0.016;2023-01-31T01:06:22;17.48;;;3.60;;
44774;SDS011;31340;51.402;0.016;2023-01-31T01:08:51;15.27;;;3.55;;
44774;SDS011;31340;51.402;0.016;2023-01-31T01:11:20;18.75;;;3.90;;
44774;SDS011;31340;51.402;0.016;2023-01-31T01:13:50;17.08;;;3.78;;
44774;SDS011;31340;51.402;0.016;2023-01-31T01:16:24;16.20;;;3.85;;
44774;SDS011;31340;51.402;0.016;2023-01-31T01:18:53;15.73;;;3.55;;
44774;SDS011;31340;51.402;0.016;2023-01-31T01:21:24;18.70;;;3.35;;
44774;SDS011;31340;51.402;0.016;2023-01-31T01:23:55;19.45;;;3.67;;
44774;SDS011;31340;51.402;0.016;2023-01-31T01:26:29;20.38;;;3.33;;
44774;SDS011;31340;51.402;0.016;2023-01-31T01:28:58;24.08;;;3.30;;
44774;SDS011;31340;51.402;0.016;2023-01-31T01:31:29;18.77;;;4.18;;
44774;SDS011;31340;51.402;0.016;2023-01-31T01:33:58;14.63;;;3.15;;
44774;SDS011;31340;51.402;0.016;2023-01-31T01:36:27;16.85;;;3.42;;
44774;SDS011;31340;51.402;0.016;2023-01-31T01:38:56;16.92;;;3.67;;
44774;SDS011;31340;51.402;0.016;2023-01-31T01:41:25;15.65;;;3.15;;
44774;SDS011;31340;51.402;0.016;2023-01-31T01:43:53;19.33;;;2.95;;
44774;SDS011;31340;51.402;0.016;2023-01-31T01:46:24;21.67;;;3.08;;
44774;SDS011;31340;51.402;0.016;2023-01-31T01:51:31;21.15;;;3.13;;
44774;SDS011;31340;51.402;0.016;2023-01-31T01:54:02;10.88;;;2.72;;
44774;SDS011;31340;51.402;0.016;2023-01-31T01:56:36;16.23;;;2.78;;
44774;SDS011;31340;51.402;0.016;2023-01-31T01:59:15;12.65;;;2.60;;
44774;SDS011;31340;51.402;0.016;2023-01-31T02:01:56;26.10;;;3.50;;
44774;SDS011;31340;51.402;0.016;2023-01-31T02:04:28;20.60;;;3.42;;
44774;SDS011;31340;51.402;0.016;2023-01-31T02:07:02;12.48;;;2.80;;
44774;SDS011;31340;51.402;0.016;2023-01-31T02:09:32;18.83;;;3.72;;
44774;SDS011;31340;51.402;0.016;2023-01-31T02:12:21;17.90;;;3.35;;
44774;SDS011;31340;51.402;0.016;2023-01-31T02:14:49;17.08;;;3.03;;
44774;SDS011;31340;51.402;0.016;2023-01-31T02:17:19;15.00;;;3.55;;
44774;SDS011;31340;51.402;0.016;2023-01-31T02:19:50;16.40;;;4.00;;
44774;SDS011;31340;51.402;0.016;2023-01-31T02:40:26;19.58;;;4.50;;
44774;SDS011;31340;51.402;0.016;2023-01-31T02:45:58;23.55;;;3.85;;
44774;SDS011;31340;51.402;0.016;2023-01-31T02:48:43;18.00;;;3.78;;
44774;SDS011;31340;51.402;0.016;2023-01-31T02:51:20;14.23;;;3.28;;
44774;SDS011;31340;51.402;0.016;2023-01-31T02:54:00;19.15;;;3.72;;
44774;SDS011;31340;51.402;0.016;2023-01-31T02:56:50;17.75;;;3.25;;
44774;SDS011;31340;51.402;0.016;2023-01-31T02:59:20;20.85;;;3.47;;
44774;SDS011;31340;51.402;0.016;2023-01-31T03:01:59;20.75;;;3.00;;
44774;SDS011;31340;51.402;0.016;2023-01-31T03:04:29;19.23;;;4.35;;
44774;SDS011;31340;51.402;0.016;2023-01-31T03:09:33;18.80;;;3.00;;
44774;SDS011;31340;51.402;0.016;2023-01-31T03:12:17;24.75;;;4.78;;
44774;SDS011;31340;51.402;0.016;2023-01-31T03:17:50;19.80;;;3.58;;
44774;SDS011;31340;51.402;0.016;2023-01-31T03:20:25;29.70;;;3.75;;
44774;SDS011;31340;51.402;0.016;2023-01-31T03:23:36;26.00;;;4.72;;
44774;SDS011;31340;51.402;0.016;2023-01-31T03:25:57;21.88;;;4.30;;
44774;SDS011;31340;51.402;0.016;2023-01-31T03:28:28;20.08;;;3.08;;
44774;SDS011;31340;51.402;0.016;2023-01-31T03:31:00;25.80;;;4.53;;
44774;SDS011;31340;51.402;0.016;2023-01-31T03:33:50;20.17;;;3.67;;
44774;SDS011;31340;51.402;0.016;2023-01-31T03:36:38;17.23;;;3.47;;
44774;SDS011;31340;51.402;0.016;2023-01-31T03:42:32;25.45;;;4.18;;
44774;SDS011;31340;51.402;0.016;2023-01-31T03:47:42;24.20;;;3.25;;
44774;SDS011;31340;51.402;0.016;2023-01-31T03:53:02;27.88;;;4.63;;
44774;SDS011;31340;51.402;0.016;2023-01-31T03:55:34;18.58;;;3.70;;
44774;SDS011;31340;51.402;0.016;2023-01-31T03:58:09;22.77;;;3.13;;
44774;SDS011;31340;51.402;0.016;2023-01-31T04:00:41;18.48;;;3.30;;
44774;SDS011;31340;51.402;0.016;2023-01-31T04:03:18;21.02;;;4.72;;
44774;SDS011;31340;51.402;0.016;2023-01-31T04:05:54;23.90;;;3.95;;
44774;SDS011;31340;51.402;0.016;2023-01-31T04:08:23;18.95;;;3.33;;
44774;SDS011;31340;51.402;0.016;2023-01-31T04:11:01;38.08;;;4.53;;
44774;SDS011;31340;51.402;0.016;2023-01-31T04:13:31;22.98;;;3.70;;
44774;SDS011;31340;51.402;0.016;2023-01-31T04:15:58;19.55;;;3.35;;
44774;SDS011;31340;51.402;0.016;2023-01-31T04:18:26;22.52;;;3.28;;
44774;SDS011;31340;51.402;0.016;2023-01-31T04:20:53;21.50;;;3.13;;
44774;SDS011;31340;51.402;0.016;2023-01-31T04:23:22;24.88;;;4.65;;
44774;SDS011;31340;51.402;0.016;2023-01-31T04:25:52;16.08;;;2.90;;
44774;SDS011;31340;51.402;0.016;2023-01-31T04:28:23;30.63;;;4.72;;
44774;SDS011;31340;51.402;0.016;2023-01-31T04:30:54;24.08;;;3.53;;
44774;SDS011;31340;51.402;0.016;2023-01-31T04:33:23;14.98;;;3.20;;
44774;SDS011;31340;51.402;0.016;2023-01-31T04:35:50;25.08;;;4.15;;
44774;SDS011;31340;51.402;0.016;2023-01-31T04:38:18;18.98;;;3.53;;
44774;SDS011;31340;51.402;0.016;2023-01-31T04:40:46;20.35;;;3.28;;
44774;SDS011;31340;51.402;0.016;2023-01-31T04:43:13;15.15;;;2.88;;
44774;SDS011;31340;51.402;0.016;2023-01-31T04:45:41;21.55;;;3.05;;
44774;SDS011;31340;51.402;0.016;2023-01-31T04:48:09;24.63;;;3.58;;
44774;SDS011;31340;51.402;0.016;2023-01-31T04:50:36;24.40;;;3.15;;
44774;SDS011;31340;51.402;0.016;2023-01-31T04:53:05;17.85;;;3.08;;
44774;SDS011;31340;51.402;0.016;2023-01-31T04:55:34;21.80;;;3.00;;
44774;SDS011;31340;51.402;0.016;2023-01-31T04:58:02;28.85;;;3.75;;
44774;SDS011;31340;51.402;0.016;2023-01-31T05:00:32;24.13;;;4.03;;
44774;SDS011;31340;51.402;0.016;2023-01-31T05:03:00;23.25;;;3.50;;
44774;SDS011;31340;51.402;0.016;2023-01-31T05:05:28;24.60;;;3.92;;
44774;SDS011;31340;51.402;0.016;2023-01-31T05:07:55;23.10;;;3.65;;
44774;SDS011;31340;51.402;0.016;2023-01-31T05:10:23;19.40;;;3.28;;
44774;SDS011;31340;51.402;0.016;2023-01-31T05:12:51;16.35;;;2.55;;
44774;SDS011;31340;51.402;0.016;2023-01-31T05:15:18;23.42;;;2.88;;
44774;SDS011;31340;51.402;0.016;2023-01-31T05:17:53;19.08;;;2.85;;
44774;SDS011;31340;51.402;0.016;2023-01-31T05:20:36;15.63;;;3.70;;
44774;SDS011;31340;51.402;0.016;2023-01-31T05:23:06;23.40;;;3.97;;
44774;SDS011;31340;51.402;0.016;2023-01-31T05:25:35;15.10;;;2.60;;
44774;SDS011;31340;51.402;0.016;2023-01-31T05:28:03;17.95;;;3.40;;
44774;SDS011;31340;51.402;0.016;2023-01-31T05:30:31;16.13;;;3.05;;
44774;SDS011;31340;51.402;0.016;2023-01-31T05:32:59;21.77;;;3.50;;
44774;SDS011;31340;51.402;0.016;2023-01-31T05:35:26;21.48;;;3.20;;
44774;SDS011;31340;51.402;0.016;2023-01-31T05:37:54;25.30;;;3.50;;
44774;SDS011;31340;51.402;0.016;2023-01-31T05:40:21;11.95;;;2.58;;
44774;SDS011;31340;51.402;0.016;2023-01-31T05:42:52;21.10;;;3.20;;
44774;SDS011;31340;51.402;0.016;2023-01-31T05:45:21;22.17;;;3.00;;
44774;SDS011;31340;51.402;0.016;2023-01-31T05:47:49;16.20;;;3.13;;
44774;SDS011;31340;51.402;0.016;2023-01-31T05:50:17;20.40;;;3.88;;
44774;SDS011;31340;51.402;0.016;2023-01-31T05:52:52;28.02;;;4.22;;
44774;SDS011;31340;51.402;0.016;2023-01-31T05:55:21;26.13;;;2.75;;
44774;SDS011;31340;51.402;0.016;2023-01-31T05:57:50;26.05;;;3.10;;
44774;SDS011;31340;51.402;0.016;2023-01-31T06:00:19;16.83;;;3.47;;
44774;SDS011;31340;51.402;0.016;2023-01-31T06:02:47;21.60;;;2.78;;
44774;SDS011;31340;51.402;0.016;2023-01-31T06:05:15;18.23;;;3.83;;
44774;SDS011;31340;51.402;0.016;2023-01-31T06:07:42;24.45;;;3.35;;
44774;SDS011;31340;51.402;0.016;2023-01-31T06:10:11;11.88;;;2.38;;
44774;SDS011;31340;51.402;0.016;2023-01-31T06:12:39;18.85;;;2.58;;
44774;SDS011;31340;51.402;0.016;2023-01-31T06:15:07;21.20;;;2.63;;
44774;SDS011;31340;51.402;0.016;2023-01-31T06:17:35;21.88;;;2.80;;
44774;SDS011;31340;51.402;0.016;2023-01-31T06:20:04;14.65;;;2.47;;
44774;SDS011;31340;51.402;0.016;2023-01-31T06:22:32;16.88;;;2.85;;
44774;SDS011;31340;51.402;0.016;2023-01-31T06:25:00;15.52;;;2.88;;
44774;SDS011;31340;51.402;0.016;2023-01-31T06:27:30;20.00;;;2.80;;
44774;SDS011;31340;51.402;0.016;2023-01-31T06:29:59;14.60;;;2.65;;
44774;SDS011;31340;51.402;0.016;2023-01-31T06:32:26;20.17;;;2.85;;
44774;SDS011;31340;51.402;0.016;2023-01-31T06:34:54;14.38;;;2.63;;
44774;SDS011;31340;51.402;0.016;2023-01-31T06:37:22;13.48;;;2.50;;
44774;SDS011;31340;51.402;0.016;2023-01-31T06:39:49;26.95;;;3.22;;
44774;SDS011;31340;51.402;0.016;2023-01-31T06:42:17;17.50;;;3.30;;
44774;SDS011;31340;51.402;0.016;2023-01-31T06:44:44;20.25;;;3.63;;
44774;SDS011;31340;51.402;0.016;2023-01-31T06:47:12;18.00;;;2.97;;
44774;SDS011;31340;51.402;0.016;2023-01-31T06:49:40;21.05;;;3.25;;
44774;SDS011;31340;51.402;0.016;2023-01-31T06:52:08;17.88;;;2.67;;
44774;SDS011;31340;51.402;0.016;2023-01-31T06:54:36;18.88;;;2.65;;
44774;SDS011;31340;51.402;0.016;2023-01-31T06:57:03;16.98;;;2.83;;
44774;SDS011;31340;51.402;0.016;2023-01-31T06:59:31;16.75;;;2.53;;
44774;SDS011;31340;51.402;0.016;2023-01-31T07:01:59;11.73;;;2.58;;
44774;SDS011;31340;51.402;0.016;2023-01-31T07:04:27;10.60;;;2.70;;
44774;SDS011;31340;51.402;0.016;2023-01-31T07:06:54;16.65;;;2.60;;
44774;SDS011;31340;51.402;0.016;2023-01-31T07:09:23;16.02;;;2.80;;
44774;SDS011;31340;51.402;0.016;2023-01-31T07:11:51;16.70;;;2.63;;
44774;SDS011;31340;51.402;0.016;2023-01-31T07:14:18;17.23;;;2.58;;
44774;SDS011;31340;51.402;0.016;2023-01-31T07:16:45;9.70;;;2.40;;
44774;SDS011;31340;51.402;0.016;2023-01-31T07:19:13;15.60;;;3.40;;
44774;SDS011;31340;51.402;0.016;2023-01-31T07:21:41;14.40;;;2.67;;
44774;SDS011;31340;51.402;0.016;2023-01-31T07:24:08;16.30;;;2.33;;
44774;SDS011;31340;51.402;0.016;2023-01-31T07:26:36;17.48;;;3.92;;
44774;SDS011;31340;51.402;0.016;2023-01-31T07:29:03;19.52;;;2.97;;
44774;SDS011;31340;51.402;0.016;2023-01-31T07:31:31;18.50;;;3.67;;
44774;SDS011;31340;51.402;0.016;2023-01-31T07:33:59;12.23;;;2.95;;
44774;SDS011;31340;51.402;0.016;2023-01-31T07:36:27;12.98;;;2.10;;
44774;SDS011;31340;51.402;0.016;2023-01-31T07:38:55;12.40;;;2.60;;
44774;SDS011;31340;51.402;0.016;2023-01-31T07:41:24;10.07;;;2.22;;
44774;SDS011;31340;51.402;0.016;2023-01-31T07:43:51;12.20;;;2.70;;
44774;SDS011;31340;51.402;0.016;2023-01-31T07:46:19;13.55;;;2.25;;
44774;SDS011;31340;51.402;0.016;2023-01-31T07:48:46;14.52;;;2.30;;
44774;SDS011;31340;51.402;0.016;2023-01-31T07:51:14;10.98;;;2.20;;
44774;SDS011;31340;51.402;0.016;2023-01-31T07:53:41;13.55;;;3.20;;
44774;SDS011;31340;51.402;0.016;2023-01-31T07:56:14;23.65;;;2.80;;
44774;SDS011;31340;51.402;0.016;2023-01-31T07:58:43;19.48;;;2.95;;
44774;SDS011;31340;51.402;0.016;2023-01-31T08:01:14;13.70;;;2.90;;
44774;SDS011;31340;51.402;0.016;2023-01-31T08:04:03;14.48;;;2.70;;
44774;SDS011;31340;51.402;0.016;2023-01-31T08:06:53;16.35;;;3.22;;
44774;SDS011;31340;51.402;0.016;2023-01-31T08:09:22;13.98;;;3.20;;
44774;SDS011;31340;51.402;0.016;2023-01-31T08:11:51;21.38;;;3.67;;
44774;SDS011;31340;51.402;0.016;2023-01-31T08:14:18;17.25;;;2.63;;
44774;SDS011;31340;51.402;0.016;2023-01-31T08:16:51;12.88;;;2.97;;
44774;SDS011;31340;51.402;0.016;2023-01-31T08:19:18;14.10;;;2.47;;
44774;SDS011;31340;51.402;0.016;2023-01-31T08:21:46;14.43;;;2.47;;
44774;SDS011;31340;51.402;0.016;2023-01-31T08:24:14;16.85;;;2.85;;
44774;SDS011;31340;51.402;0.016;2023-01-31T08:26:41;16.70;;;3.65;;
44774;SDS011;31340;51.402;0.016;2023-01-31T08:29:10;15.27;;;3.05;;
44774;SDS011;31340;51.402;0.016;2023-01-31T08:31:38;13.77;;;2.78;;
44774;SDS011;31340;51.402;0.016;2023-01-31T08:34:07;22.63;;;3.67;;
44774;SDS011;31340;51.402;0.016;2023-01-31T08:36:35;16.25;;;2.67;;
44774;SDS011;31340;51.402;0.016;2023-01-31T08:39:03;20.65;;;3.17;;
44774;SDS011;31340;51.402;0.016;2023-01-31T08:41:31;21.90;;;3.03;;
44774;SDS011;31340;51.402;0.016;2023-01-31T08:44:00;15.52;;;2.88;;
44774;SDS011;31340;51.402;0.016;2023-01-31T08:46:34;11.13;;;2.92;;
44774;SDS011;31340;51.402;0.016;2023-01-31T08:49:04;20.88;;;3.78;;
44774;SDS011;31340;51.402;0.016;2023-01-31T08:51:32;20.65;;;3.13;;
44774;SDS011;31340;51.402;0.016;2023-01-31T08:54:00;25.63;;;3.53;;
44774;SDS011;31340;51.402;0.016;2023-01-31T08:56:27;19.35;;;4.22;;
44774;SDS011;31340;51.402;0.016;2023-01-31T08:58:56;27.67;;;3.33;;
44774;SDS011;31340;51.402;0.016;2023-01-31T09:01:23;16.23;;;3.05;;
44774;SDS011;31340;51.402;0.016;2023-01-31T09:03:51;12.93;;;3.42;;
44774;SDS011;31340;51.402;0.016;2023-01-31T09:06:23;16.83;;;3.40;;
44774;SDS011;31340;51.402;0.016;2023-01-31T09:08:56;29.17;;;3.85;;
44774;SDS011;31340;51.402;0.016;2023-01-31T09:11:28;23.42;;;3.28;;
44774;SDS011;31340;51.402;0.016;2023-01-31T09:13:56;20.85;;;3.72;;
44774;SDS011;31340;51.402;0.016;2023-01-31T09:16:24;24.25;;;4.03;;
44774;SDS011;31340;51.402;0.016;2023-01-31T09:18:52;24.10;;;3.60;;
44774;SDS011;31340;51.402;0.016;2023-01-31T09:21:20;16.27;;;4.28;;
44774;SDS011;31340;51.402;0.016;2023-01-31T09:23:52;33.45;;;3.90;;
44774;SDS011;31340;51.402;0.016;2023-01-31T09:26:22;19.83;;;4.18;;
44774;SDS011;31340;51.402;0.016;2023-01-31T09:28:49;26.85;;;3.78;;
44774;SDS011;31340;51.402;0.016;2023-01-31T09:31:17;18.75;;;3.30;;
44774;SDS011;31340;51.402;0.016;2023-01-31T09:33:48;20.95;;;3.58;;
44774;SDS011;31340;51.402;0.016;2023-01-31T09:36:17;18.40;;;4.05;;
44774;SDS011;31340;51.402;0.016;2023-01-31T09:38:46;24.05;;;3.13;;
44774;SDS011;31340;51.402;0.016;2023-01-31T09:44:03;24.83;;;4.43;;
44774;SDS011;31340;51.402;0.016;2023-01-31T09:46:41;16.27;;;3.80;;
44774;SDS011;31340;51.402;0.016;2023-01-31T09:49:14;22.85;;;4.22;;
44774;SDS011;31340;51.402;0.016;2023-01-31T09:51:47;16.77;;;3.58;;
44774;SDS011;31340;51.402;0.016;2023-01-31T09:54:21;21.60;;;4.22;;
44774;SDS011;31340;51.402;0.016;2023-01-31T10:11:20;21.67;;;4.30;;
44774;SDS011;31340;51.402;0.016;2023-01-31T10:19:42;22.35;;;4.25;;
44774;SDS011;31340;51.402;0.016;2023-01-31T10:22:33;25.20;;;3.53;;
44774;SDS011;31340;51.402;0.016;2023-01-31T10:28:05;27.80;;;3.72;;
44774;SDS011;31340;51.402;0.016;2023-01-31T10:33:52;21.95;;;3.92;;
44774;SDS011;31340;51.402;0.016;2023-01-31T10:39:25;24.00;;;3.83;;
44774;SDS011;31340;51.402;0.016;2023-01-31T10:42:05;17.50;;;3.20;;
44774;SDS011;31340;51.402;0.016;2023-01-31T10:44:42;25.60;;;3.53;;
44774;SDS011;31340;51.402;0.016;2023-01-31T10:47:21;28.13;;;4.72;;
44774;SDS011;31340;51.402;0.016;2023-01-31T10:49:58;15.27;;;3.45;;
44774;SDS011;31340;51.402;0.016;2023-01-31T10:57:52;17.17;;;3.30;;
44774;SDS011;31340;51.402;0.016;2023-01-31T11:00:22;17.58;;;3.58;;
44774;SDS011;31340;51.402;0.016;2023-01-31T11:02:53;19.42;;;3.78;;
44774;SDS011;31340;51.402;0.016;2023-01-31T11:05:22;22.80;;;3.75;;
44774;SDS011;31340;51.402;0.016;2023-01-31T11:07:52;15.70;;;3.25;;
44774;SDS011;31340;51.402;0.016;2023-01-31T11:10:25;17.95;;;3.85;;
44774;SDS011;31340;51.402;0.016;2023-01-31T11:12:59;21.45;;;4.45;;
44774;SDS011;31340;51.402;0.016;2023-01-31T11:15:39;16.88;;;3.33;;
44774;SDS011;31340;51.402;0.016;2023-01-31T11:18:12;14.82;;;2.90;;
44774;SDS011;31340;51.402;0.016;2023-01-31T11:20:50;10.07;;;2.90;;
44774;SDS011;31340;51.402;0.016;2023-01-31T11:23:22;16.85;;;3.13;;
44774;SDS011;31340;51.402;0.016;2023-01-31T11:25:52;13.27;;;2.85;;
44774;SDS011;31340;51.402;0.016;2023-01-31T11:28:35;12.77;;;3.20;;
44774;SDS011;31340;51.402;0.016;2023-01-31T11:31:06;13.82;;;3.55;;
44774;SDS011;31340;51.402;0.016;2023-01-31T11:33:54;15.35;;;3.65;;
44774;SDS011;31340;51.402;0.016;2023-01-31T11:36:30;16.48;;;3.20;;
44774;SDS011;31340;51.402;0.016;2023-01-31T11:38:59;17.48;;;3.53;;
44774;SDS011;31340;51.402;0.016;2023-01-31T11:41:51;18.20;;;3.80;;
44774;SDS011;31340;51.402;0.016;2023-01-31T11:44:19;12.30;;;3.00;;
44774;SDS011;31340;51.402;0.016;2023-01-31T11:46:59;11.77;;;3.30;;
44774;SDS011;31340;51.402;0.016;2023-01-31T11:49:32;21.00;;;3.58;;
44774;SDS011;31340;51.402;0.016;2023-01-31T11:52:13;14.70;;;3.10;;
44774;SDS011;31340;51.402;0.016;2023-01-31T11:54:42;14.68;;;2.88;;
44774;SDS011;31340;51.402;0.016;2023-01-31T11:57:25;11.23;;;2.60;;
44774;SDS011;31340;51.402;0.016;2023-01-31T11:59:58;10.60;;;2.53;;
44774;SDS011;31340;51.402;0.016;2023-01-31T12:02:36;10.63;;;2.33;;
44774;SDS011;31340;51.402;0.016;2023-01-31T12:05:10;9.18;;;2.60;;
44774;SDS011;31340;51.402;0.016;2023-01-31T12:07:47;12.15;;;2.30;;
44774;SDS011;31340;51.402;0.016;2023-01-31T12:10:39;6.28;;;2.38;;
44774;SDS011;31340;51.402;0.016;2023-01-31T12:13:13;10.05;;;2.47;;
44774;SDS011;31340;51.402;0.016;2023-01-31T12:26:53;15.02;;;2.72;;
44774;SDS011;31340;51.402;0.016;2023-01-31T12:32:12;12.15;;;2.30;;
44774;SDS011;31340;51.402;0.016;2023-01-31T12:35:00;9.07;;;2.35;;
44774;SDS011;31340;51.402;0.016;2023-01-31T12:38:27;10.65;;;2.63;;
44774;SDS011;31340;51.402;0.016;2023-01-31T12:40:42;11.57;;;2.40;;
44774;SDS011;31340;51.402;0.016;2023-01-31T12:43:26;8.60;;;2.33;;
44774;SDS011;31340;51.402;0.016;2023-01-31T12:46:13;9.43;;;2.17;;
44774;SDS011;31340;51.402;0.016;2023-01-31T13:03:08;13.38;;;2.72;;
44774;SDS011;31340;51.402;0.016;2023-01-31T13:05:58;8.50;;;2.47;;
44774;SDS011;31340;51.402;0.016;2023-01-31T13:08:30;9.52;;;2.80;;
44774;SDS011;31340;51.402;0.016;2023-01-31T13:13:41;9.00;;;2.38;;
44774;SDS011;31340;51.402;0.016;2023-01-31T13:16:33;8.13;;;1.92;;
44774;SDS011;31340;51.402;0.016;2023-01-31T13:19:05;8.67;;;2.30;;
44774;SDS011;31340;51.402;0.016;2023-01-31T13:21:40;6.05;;;1.80;;
44774;SDS011;31340;51.402;0.016;2023-01-31T13:24:17;6.72;;;2.13;;
44774;SDS011;31340;51.402;0.016;2023-01-31T13:27:08;9.38;;;2.80;;
44774;SDS011;31340;51.402;0.016;2023-01-31T13:29:58;8.55;;;2.15;;
44774;SDS011;31340;51.402;0.016;2023-01-31T13:32:27;6.47;;;2.00;;
44774;SDS011;31340;51.402;0.016;2023-01-31T13:35:17;8.18;;;2.70;;
44774;SDS011;31340;51.402;0.016;2023-01-31T13:37:52;8.40;;;1.98;;
44774;SDS011;31340;51.402;0.016;2023-01-31T13:40:26;4.95;;;2.33;;
44774;SDS011;31340;51.402;0.016;2023-01-31T13:42:58;6.93;;;1.92;;
44774;SDS011;31340;51.402;0.016;2023-01-31T13:45:30;7.10;;;2.42;;
44774;SDS011;31340;51.402;0.016;2023-01-31T13:48:05;6.03;;;1.90;;
44774;SDS011;31340;51.402;0.016;2023-01-31T16:02:59;18.27;;;3.72;;
44774;SDS011;31340;51.402;0.016;2023-01-31T16:05:29;21.13;;;4.38;;
44774;SDS011;31340;51.402;0.016;2023-01-31T16:07:59;20.23;;;3.50;;
44774;SDS011;31340;51.402;0.016;2023-01-31T16:10:29;16.92;;;3.78;;
44774;SDS011;31340;51.402;0.016;2023-01-31T16:12:58;15.70;;;3.67;;
44774;SDS011;31340;51.402;0.016;2023-01-31T16:15:28;17.33;;;4.03;;
44774;SDS011;31340;51.402;0.016;2023-01-31T16:17:59;22.42;;;4.88;;
44774;SDS011;31340;51.402;0.016;2023-01-31T16:20:34;20.42;;;3.95;;
44774;SDS011;31340;51.402;0.016;2023-01-31T16:28:36;25.73;;;3.67;;
44774;SDS011;31340;51.402;0.016;2023-01-31T16:31:10;22.65;;;5.55;;
44774;SDS011;31340;51.402;0.016;2023-01-31T16:33:53;29.38;;;3.90;;
44774;SDS011;31340;51.402;0.016;2023-01-31T16:36:30;18.83;;;3.53;;
44774;SDS011;31340;51.402;0.016;2023-01-31T16:39:01;21.60;;;3.92;;
44774;SDS011;31340;51.402;0.016;2023-01-31T16:41:37;15.27;;;3.55;;
44774;SDS011;31340;51.402;0.016;2023-01-31T16:44:13;25.08;;;4.47;;
44774;SDS011;31340;51.402;0.016;2023-01-31T16:46:45;20.02;;;3.88;;
44774;SDS011;31340;51.402;0.016;2023-01-31T16:49:18;19.50;;;4.15;;
44774;SDS011;31340;51.402;0.016;2023-01-31T16:51:46;18.35;;;3.85;;
44774;SDS011;31340;51.402;0.016;2023-01-31T16:54:41;22.90;;;4.93;;
44774;SDS011;31340;51.402;0.016;2023-01-31T16:57:20;18.75;;;4.18;;
44774;SDS011;31340;51.402;0.016;2023-01-31T16:59:50;23.98;;;4.70;;
44774;SDS011;31340;51.402;0.016;2023-01-31T17:02:20;24.60;;;3.35;;
44774;SDS011;31340;51.402;0.016;2023-01-31T17:04:57;24.42;;;4.22;;
44774;SDS011;31340;51.402;0.016;2023-01-31T17:07:29;33.20;;;4.75;;
44774;SDS011;31340;51.402;0.016;2023-01-31T17:10:00;21.08;;;4.32;;
44774;SDS011;31340;51.402;0.016;2023-01-31T17:12:32;27.83;;;4.90;;
44774;SDS011;31340;51.402;0.016;2023-01-31T17:15:13;24.15;;;3.80;;
44774;SDS011;31340;51.402;0.016;2023-01-31T17:17:42;24.85;;;4.60;;
44774;SDS011;31340;51.402;0.016;2023-01-31T17:20:14;28.73;;;4.43;;
44774;SDS011;31340;51.402;0.016;2023-01-31T17:22:43;27.60;;;4.75;;
44774;SDS011;31340;51.402;0.016;2023-01-31T17:25:23;23.77;;;4.47;;
44774;SDS011;31340;51.402;0.016;2023-01-31T17:27:53;26.52;;;4.63;;
44774;SDS011;31340;51.402;0.016;2023-01-31T17:30:20;22.25;;;4.50;;
44774;SDS011;31340;51.402;0.016;2023-01-31T17:32:48;28.13;;;4.75;;
44774;SDS011;31340;51.402;0.016;2023-01-31T17:35:21;25.65;;;4.28;;
44774;SDS011;31340;51.402;0.016;2023-01-31T17:37:52;25.45;;;4.70;;
44774;SDS011;31340;51.402;0.016;2023-01-31T17:40:19;27.85;;;4.75;;
44774;SDS011;31340;51.402;0.016;2023-01-31T17:42:47;26.85;;;4.10;;
44774;SDS011;31340;51.402;0.016;2023-01-31T17:45:17;24.83;;;5.13;;
44774;SDS011;31340;51.402;0.016;2023-01-31T17:47:45;18.50;;;4.30;;
44774;SDS011;31340;51.402;0.016;2023-01-31T17:50:17;21.42;;;4.72;;
44774;SDS011;31340;51.402;0.016;2023-01-31T17:52:47;26.75;;;4.50;;
44774;SDS011;31340;51.402;0.016;2023-01-31T17:55:16;22.25;;;4.15;;
44774;SDS011;31340;51.402;0.016;2023-01-31T17:57:46;22.67;;;4.97;;
44774;SDS011;31340;51.402;0.016;2023-01-31T18:00:14;21.02;;;4.63;;
44774;SDS011;31340;51.402;0.016;2023-01-31T18:02:43;25.42;;;5.63;;
44774;SDS011;31340;51.402;0.016;2023-01-31T18:05:11;30.35;;;5.88;;
44774;SDS011;31340;51.402;0.016;2023-01-31T18:07:49;20.23;;;5.15;;
44774;SDS011;31340;51.402;0.016;2023-01-31T18:12:44;28.63;;;5.88;;
44774;SDS011;31340;51.402;0.016;2023-01-31T18:15:11;27.88;;;5.72;;
44774;SDS011;31340;51.402;0.016;2023-01-31T18:17:39;28.20;;;5.30;;
44774;SDS011;31340;51.402;0.016;2023-01-31T18:20:07;26.55;;;4.97;;
44774;SDS011;31340;51.402;0.016;2023-01-31T18:22:35;21.20;;;5.15;;
44774;SDS011;31340;51.402;0.016;2023-01-31T18:25:03;24.85;;;4.55;;
44774;SDS011;31340;51.402;0.016;2023-01-31T18:27:32;28.27;;;5.28;;
44774;SDS011;31340;51.402;0.016;2023-01-31T18:29:59;27.17;;;5.05;;
44774;SDS011;31340;51.402;0.016;2023-01-31T18:32:27;29.50;;;5.65;;
44774;SDS011;31340;51.402;0.016;2023-01-31T18:34:55;27.42;;;5.50;;
44774;SDS011;31340;51.402;0.016;2023-01-31T18:37:23;26.38;;;5.03;;
44774;SDS011;31340;51.402;0.016;2023-01-31T18:39:51;23.20;;;4.53;;
44774;SDS011;31340;51.402;0.016;2023-01-31T18:42:19;30.08;;;4.72;;
44774;SDS011;31340;51.402;0.016;2023-01-31T18:44:47;24.70;;;5.22;;
44774;SDS011;31340;51.402;0.016;2023-01-31T18:47:15;26.73;;;4.47;;
44774;SDS011;31340;51.402;0.016;2023-01-31T18:49:43;24.27;;;4.47;;
44774;SDS011;31340;51.402;0.016;2023-01-31T18:52:10;26.77;;;4.82;;
44774;SDS011;31340;51.402;0.016;2023-01-31T18:54:38;31.35;;;5.75;;
44774;SDS011;31340;51.402;0.016;2023-01-31T18:57:07;24.05;;;5.07;;
44774;SDS011;31340;51.402;0.016;2023-01-31T18:59:35;23.27;;;5.30;;
44774;SDS011;31340;51.402;0.016;2023-01-31T19:02:02;21.10;;;4.55;;
44774;SDS011;31340;51.402;0.016;2023-01-31T19:04:30;24.85;;;4.25;;
44774;SDS011;31340;51.402;0.016;2023-01-31T19:06:58;28.45;;;5.65;;
44774;SDS011;31340;51.402;0.016;2023-01-31T19:09:25;25.83;;;5.00;;
44774;SDS011;31340;51.402;0.016;2023-01-31T19:11:53;32.00;;;5.95;;